MSC Orchestra — 3EJF3 — position and weather

sailwx.info

Track history (hours):
 
Tides Stations Pressure Air Temp Water Temp Dewpoint Dewpoint depression Visibility Wind Speed Wind Dir Waves Ship positions

MSC Orchestra

Last reported at 2014-Jul-12 04:33 UTC. Time now 2014-Jul-12 09:07 UTC.
Position N 54°35' E 010°54'.

Length 294 m; draft 7.8 m.

Type: Ship. MMSI: 372497000.

Date/timePositionNaut miles runAvg speedWind from/ knotsBaromVisibWave heightAir tempDewpointWater temp
2014-Jul-12 04:33N 54°35' E 010°54'2121.6
2014-Jul-12 03:33N 54°31' E 011°30'2121.2
2014-Jul-12 02:33N 54°26' E 012°06'2019.9
2014-Jul-12 01:33N 54°42' E 012°26'2120.9
2014-Jul-12 00:33N 54°51' E 012°59'2221.8
2014-Jul-11 23:33N 54°58' E 013°35'2121.4
2014-Jul-11 22:33N 55°06' E 014°09'2221.7
2014-Jul-11 21:32N 55°24' E 014°32'2121.6
2014-Jul-11 20:33N 55°36' E 015°03'2522.0
2014-Jul-11 19:24N 55°49' E 015°42'1921.9
2014-Jul-11 18:33N 55°57' E 016°11'30921.3
2014-Jul-11 04:04N 59°35' E 023°03'1121.4
2014-Jul-11 03:33N 59°38' E 023°24'2121.2
2014-Jul-11 02:33N 59°45' E 024°04'8420.9
2014-Jul-10 22:33N 60°00' E 026°47'10016.5
2014-Jul-10 16:32N 59°57' E 030°06'2 2.4
2014-Jul-10 15:32N 59°57' E 030°11'0 0.0
2014-Jul-10 14:28N 59°57' E 030°11'0 0.0
2014-Jul-10 13:28N 59°57' E 030°11'0 0.0
2014-Jul-10 12:33N 59°57' E 030°11'0 0.0
2014-Jul-10 11:33N 59°57' E 030°11'0 0.0
2014-Jul-10 10:32N 59°57' E 030°11'0 0.0
2014-Jul-10 09:32N 59°57' E 030°11'0 0.0
2014-Jul-10 08:31N 59°57' E 030°11'0 0.0
2014-Jul-10 07:28N 59°57' E 030°11'0 0.0
2014-Jul-10 06:31N 59°57' E 030°11'0 0.0
2014-Jul-10 05:30N 59°57' E 030°11'0 0.0
2014-Jul-10 04:30N 59°57' E 030°11'0 0.0
2014-Jul-10 03:29N 59°57' E 030°11'0 0.1
2014-Jul-10 02:33N 59°57' E 030°11'8012.3
2014-Jul-09 20:06N 60°07' E 027°33'1017.6
2014-Jul-09 19:33N 60°02' E 027°16'1716.9
2014-Jul-09 18:33N 59°59' E 026°43'2018.1
2014-Jul-09 17:28N 59°55' E 026°05'36 3.2
2014-Jul-09 06:16N 59°51' E 024°54'8 9.2
2014-Jul-09 05:22N 59°46' E 024°43'810.3
2014-Jul-09 04:34N 59°44' E 024°27'1010.2
2014-Jul-09 03:33N 59°41' E 024°07'1010.3
2014-Jul-09 02:33N 59°38' E 023°48'1110.5
2014-Jul-09 01:33N 59°34' E 023°28'1110.6
2014-Jul-09 00:33N 59°31' E 023°08'1110.6
2014-Jul-08 23:32N 59°28' E 022°47'2110.5
2014-Jul-08 21:31N 59°16' E 022°13'22111.6
2014-Jul-08 02:29N 56°00' E 018°59'1313.0
2014-Jul-08 01:29N 55°47' E 018°59'1213.0
2014-Jul-08 00:33N 55°35' E 018°58'1312.9
2014-Jul-07 23:33N 55°22' E 018°58'1312.9
2014-Jul-07 22:33N 55°09' E 018°58'1313.0
2014-Jul-07 21:33N 54°56' E 018°58'1313.3
2014-Jul-07 20:33N 54°43' E 018°58'1312.9
2014-Jul-07 19:33N 54°32' E 018°48'8 8.4
2014-Jul-07 18:33N 54°32' E 018°33'0 0.0
2014-Jul-07 17:33N 54°32' E 018°33'0 0.0
2014-Jul-07 16:33N 54°32' E 018°33'0 0.0
2014-Jul-07 15:32N 54°32' E 018°33'0 0.0
2014-Jul-07 14:32N 54°32' E 018°33'0 0.0
2014-Jul-07 13:31N 54°32' E 018°33'0 0.0
2014-Jul-07 12:31N 54°32' E 018°33'0 0.0
2014-Jul-07 11:33N 54°32' E 018°33'2 2.1
2014-Jul-07 10:33N 54°32' E 018°37'1312.7
2014-Jul-07 09:33N 54°39' E 018°55'1312.8
2014-Jul-07 08:33N 54°51' E 018°51'1414.5
2014-Jul-07 07:33N 54°58' E 018°28'1414.3
2014-Jul-07 06:33N 54°56' E 018°04'1515.1
2014-Jul-07 05:33N 54°54' E 017°38'1817.6
2014-Jul-07 04:33N 54°51' E 017°07'1817.9
2014-Jul-07 03:33N 54°47' E 016°37'1818.0
2014-Jul-07 02:33N 54°45' E 016°06'1817.9
2014-Jul-07 01:33N 54°42' E 015°35'1817.8
2014-Jul-07 00:33N 54°39' E 015°05'1817.5
2014-Jul-06 23:33N 54°36' E 014°35'1716.5
2014-Jul-06 22:33N 54°40' E 014°07'1717.0
2014-Jul-06 21:33N 54°50' E 013°44'1717.4
2014-Jul-06 20:33N 55°01' E 013°21'1717.3
2014-Jul-06 19:33N 55°12' E 012°57'1515.0
2014-Jul-06 18:33N 55°22' E 012°38'1312.8
2014-Jul-06 17:33N 55°35' E 012°42'9 8.7
2014-Jul-06 16:33N 55°44' E 012°39'2 2.4
2014-Jul-06 15:31N 55°42' E 012°36'0 0.0
2014-Jul-06 14:31N 55°42' E 012°36'0 0.0
2014-Jul-06 13:33N 55°42' E 012°36'0 0.0
2014-Jul-06 12:33N 55°42' E 012°36'0 0.0
2014-Jul-06 11:32N 55°42' E 012°36'0 0.0
2014-Jul-06 10:32N 55°42' E 012°36'0 0.0
2014-Jul-06 09:31N 55°42' E 012°36'0 0.0
2014-Jul-06 08:31N 55°42' E 012°36'0 0.0
2014-Jul-06 07:31N 55°42' E 012°36'0 0.0
2014-Jul-06 06:33N 55°42' E 012°36'0 0.0
2014-Jul-06 05:33N 55°42' E 012°36'2 1.9
2014-Jul-06 04:33N 55°43' E 012°39'8 7.8
2014-Jul-06 03:33N 55°36' E 012°42'1010.1
2014-Jul-06 02:33N 55°26' E 012°42'1514.9
2014-Jul-06 01:33N 55°11' E 012°40'1514.5
2014-Jul-06 00:33N 54°56' E 012°45'1313.3
2014-Jul-05 23:33N 54°44' E 012°39'1514.6
2014-Jul-05 22:33N 54°35' E 012°19'1313.3
2014-Jul-05 21:33N 54°24' E 012°05'1414.2
2014-Jul-05 20:33N 54°26' E 011°41'1414.5
2014-Jul-05 19:33N 54°33' E 011°18'1413.5
2014-Jul-05 18:33N 54°35' E 010°55'24 1.9
2014-Jul-05 05:33N 54°28' E 010°15'1413.8
2014-Jul-05 04:33N 54°35' E 010°36'1514.7
2014-Jul-05 03:33N 54°47' E 010°51'1615.9
2014-Jul-05 02:33N 55°02' E 011°01'1514.7
2014-Jul-05 01:34N 55°16' E 011°04'1615.4
2014-Jul-05 00:33N 55°30' E 010°52'1514.9
2014-Jul-04 23:33N 55°45' E 010°48'1514.8
2014-Jul-04 22:33N 55°58' E 011°00'1616.2
2014-Jul-04 21:33N 56°11' E 011°16'1817.0
2014-Jul-04 20:31N 56°27' E 011°32'1616.7
2014-Jul-04 19:32N 56°41' E 011°47'1616.0
2014-Jul-04 18:31N 56°57' E 011°44'1717.3
2014-Jul-04 17:33N 57°13' E 011°37'1817.6
2014-Jul-04 16:34N 57°31' E 011°36'1111.4
2014-Jul-04 15:33N 57°41' E 011°47'1 1.2
2014-Jul-04 14:32N 57°42' E 011°49'0 0.0
2014-Jul-04 13:32N 57°42' E 011°49'0 0.0
2014-Jul-04 12:29N 57°42' E 011°49'0 0.0
2014-Jul-04 11:31N 57°42' E 011°49'0 0.0
2014-Jul-04 10:31N 57°42' E 011°49'0 0.0
2014-Jul-04 09:33N 57°42' E 011°49'0 0.0
2014-Jul-04 08:33N 57°42' E 011°49'0 0.0
2014-Jul-04 07:29N 57°42' E 011°49'0 0.0
2014-Jul-04 06:32N 57°42' E 011°49'1 1.1
2014-Jul-04 05:33N 57°41' E 011°48'1111.5
2014-Jul-04 04:33N 57°33' E 011°31'1514.5
2014-Jul-04 03:33N 57°43' E 011°11'1716.8
2014-Jul-04 02:34N 57°54' E 010°48'1717.3
2014-Jul-04 01:33N 57°56' E 010°15'13718.4
2014-Jul-03 18:06N 58°00' E 005°57'1219.6
2014-Jul-03 17:30N 58°08' E 005°40'1918.9
2014-Jul-03 16:29N 58°21' E 005°13'1819.5
2014-Jul-03 15:32N 58°39' E 005°18'1617.0
2014-Jul-03 14:33N 58°54' E 005°32'7 7.3
2014-Jul-03 13:33N 58°59' E 005°43'1 0.9
2014-Jul-03 12:31N 58°58' E 005°44'0 0.0
2014-Jul-03 11:33N 58°58' E 005°44'0 0.0
2014-Jul-03 10:30N 58°58' E 005°44'0 0.0
2014-Jul-03 09:32N 58°58' E 005°44'0 0.0
2014-Jul-03 08:32N 58°58' E 005°44'0 0.0
2014-Jul-03 07:29N 58°58' E 005°44'0 0.0
2014-Jul-03 06:31N 58°58' E 005°44'0 0.0
2014-Jul-03 05:31N 58°58' E 005°44'0 0.1
2014-Jul-03 04:33N 58°58' E 005°44'9 9.5
2014-Jul-03 03:33N 59°06' E 005°32'1615.8
2014-Jul-03 02:33N 59°07' E 005°01'7819.3
2014-Jul-02 22:32N 60°23' E 004°35'  
Track history (hours):
 
Tides Stations Pressure Air Temp Water Temp Dewpoint Dewpoint depression Visibility Wind Speed Wind Dir Waves Ship positions

MSC Orchestra

Last reported at 2014-Jul-12 04:33 UTC. Time now 2014-Jul-12 09:07 UTC.
Position N 54°35' E 010°54'.

Length 294 m; draft 7.8 m.

Type: Ship. MMSI: 372497000.

Date/timePositionNaut miles runAvg speedWind from/ knotsBaromVisibWave heightAir tempDewpointWater temp
2014-Jul-12 04:33N 54°35' E 010°54'2121.6
2014-Jul-12 03:33N 54°31' E 011°30'2121.2
2014-Jul-12 02:33N 54°26' E 012°06'2019.9
2014-Jul-12 01:33N 54°42' E 012°26'2120.9
2014-Jul-12 00:33N 54°51' E 012°59'2221.8
2014-Jul-11 23:33N 54°58' E 013°35'2121.4
2014-Jul-11 22:33N 55°06' E 014°09'2221.7
2014-Jul-11 21:32N 55°24' E 014°32'2121.6
2014-Jul-11 20:33N 55°36' E 015°03'2522.0
2014-Jul-11 19:24N 55°49' E 015°42'1921.9
2014-Jul-11 18:33N 55°57' E 016°11'30921.3
2014-Jul-11 04:04N 59°35' E 023°03'1121.4
2014-Jul-11 03:33N 59°38' E 023°24'2121.2
2014-Jul-11 02:33N 59°45' E 024°04'8420.9
2014-Jul-10 22:33N 60°00' E 026°47'10016.5
2014-Jul-10 16:32N 59°57' E 030°06'2 2.4
2014-Jul-10 15:32N 59°57' E 030°11'0 0.0
2014-Jul-10 14:28N 59°57' E 030°11'0 0.0
2014-Jul-10 13:28N 59°57' E 030°11'0 0.0
2014-Jul-10 12:33N 59°57' E 030°11'0 0.0
2014-Jul-10 11:33N 59°57' E 030°11'0 0.0
2014-Jul-10 10:32N 59°57' E 030°11'0 0.0
2014-Jul-10 09:32N 59°57' E 030°11'0 0.0
2014-Jul-10 08:31N 59°57' E 030°11'0 0.0
2014-Jul-10 07:28N 59°57' E 030°11'0 0.0
2014-Jul-10 06:31N 59°57' E 030°11'0 0.0
2014-Jul-10 05:30N 59°57' E 030°11'0 0.0
2014-Jul-10 04:30N 59°57' E 030°11'0 0.0
2014-Jul-10 03:29N 59°57' E 030°11'0 0.1
2014-Jul-10 02:33N 59°57' E 030°11'8012.3
2014-Jul-09 20:06N 60°07' E 027°33'1017.6
2014-Jul-09 19:33N 60°02' E 027°16'1716.9
2014-Jul-09 18:33N 59°59' E 026°43'2018.1
2014-Jul-09 17:28N 59°55' E 026°05'36 3.2
2014-Jul-09 06:16N 59°51' E 024°54'8 9.2
2014-Jul-09 05:22N 59°46' E 024°43'810.3
2014-Jul-09 04:34N 59°44' E 024°27'1010.2
2014-Jul-09 03:33N 59°41' E 024°07'1010.3
2014-Jul-09 02:33N 59°38' E 023°48'1110.5
2014-Jul-09 01:33N 59°34' E 023°28'1110.6
2014-Jul-09 00:33N 59°31' E 023°08'1110.6
2014-Jul-08 23:32N 59°28' E 022°47'2110.5
2014-Jul-08 21:31N 59°16' E 022°13'22111.6
2014-Jul-08 02:29N 56°00' E 018°59'1313.0
2014-Jul-08 01:29N 55°47' E 018°59'1213.0
2014-Jul-08 00:33N 55°35' E 018°58'1312.9
2014-Jul-07 23:33N 55°22' E 018°58'1312.9
2014-Jul-07 22:33N 55°09' E 018°58'1313.0
2014-Jul-07 21:33N 54°56' E 018°58'1313.3
2014-Jul-07 20:33N 54°43' E 018°58'1312.9
2014-Jul-07 19:33N 54°32' E 018°48'8 8.4
2014-Jul-07 18:33N 54°32' E 018°33'0 0.0
2014-Jul-07 17:33N 54°32' E 018°33'0 0.0
2014-Jul-07 16:33N 54°32' E 018°33'0 0.0
2014-Jul-07 15:32N 54°32' E 018°33'0 0.0
2014-Jul-07 14:32N 54°32' E 018°33'0 0.0
2014-Jul-07 13:31N 54°32' E 018°33'0 0.0
2014-Jul-07 12:31N 54°32' E 018°33'0 0.0
2014-Jul-07 11:33N 54°32' E 018°33'2 2.1
2014-Jul-07 10:33N 54°32' E 018°37'1312.7
2014-Jul-07 09:33N 54°39' E 018°55'1312.8
2014-Jul-07 08:33N 54°51' E 018°51'1414.5
2014-Jul-07 07:33N 54°58' E 018°28'1414.3
2014-Jul-07 06:33N 54°56' E 018°04'1515.1
2014-Jul-07 05:33N 54°54' E 017°38'1817.6
2014-Jul-07 04:33N 54°51' E 017°07'1817.9
2014-Jul-07 03:33N 54°47' E 016°37'1818.0
2014-Jul-07 02:33N 54°45' E 016°06'1817.9
2014-Jul-07 01:33N 54°42' E 015°35'1817.8
2014-Jul-07 00:33N 54°39' E 015°05'1817.5
2014-Jul-06 23:33N 54°36' E 014°35'1716.5
2014-Jul-06 22:33N 54°40' E 014°07'1717.0
2014-Jul-06 21:33N 54°50' E 013°44'1717.4
2014-Jul-06 20:33N 55°01' E 013°21'1717.3
2014-Jul-06 19:33N 55°12' E 012°57'1515.0
2014-Jul-06 18:33N 55°22' E 012°38'1312.8
2014-Jul-06 17:33N 55°35' E 012°42'9 8.7
2014-Jul-06 16:33N 55°44' E 012°39'2 2.4
2014-Jul-06 15:31N 55°42' E 012°36'0 0.0
2014-Jul-06 14:31N 55°42' E 012°36'0 0.0
2014-Jul-06 13:33N 55°42' E 012°36'0 0.0
2014-Jul-06 12:33N 55°42' E 012°36'0 0.0
2014-Jul-06 11:32N 55°42' E 012°36'0 0.0
2014-Jul-06 10:32N 55°42' E 012°36'0 0.0
2014-Jul-06 09:31N 55°42' E 012°36'0 0.0
2014-Jul-06 08:31N 55°42' E 012°36'0 0.0
2014-Jul-06 07:31N 55°42' E 012°36'0 0.0
2014-Jul-06 06:33N 55°42' E 012°36'0 0.0
2014-Jul-06 05:33N 55°42' E 012°36'2 1.9
2014-Jul-06 04:33N 55°43' E 012°39'8 7.8
2014-Jul-06 03:33N 55°36' E 012°42'1010.1
2014-Jul-06 02:33N 55°26' E 012°42'1514.9
2014-Jul-06 01:33N 55°11' E 012°40'1514.5
2014-Jul-06 00:33N 54°56' E 012°45'1313.3
2014-Jul-05 23:33N 54°44' E 012°39'1514.6
2014-Jul-05 22:33N 54°35' E 012°19'1313.3
2014-Jul-05 21:33N 54°24' E 012°05'1414.2
2014-Jul-05 20:33N 54°26' E 011°41'1414.5
2014-Jul-05 19:33N 54°33' E 011°18'1413.5
2014-Jul-05 18:33N 54°35' E 010°55'24 1.9
2014-Jul-05 05:33N 54°28' E 010°15'1413.8
2014-Jul-05 04:33N 54°35' E 010°36'1514.7
2014-Jul-05 03:33N 54°47' E 010°51'1615.9
2014-Jul-05 02:33N 55°02' E 011°01'1514.7
2014-Jul-05 01:34N 55°16' E 011°04'1615.4
2014-Jul-05 00:33N 55°30' E 010°52'1514.9
2014-Jul-04 23:33N 55°45' E 010°48'1514.8
2014-Jul-04 22:33N 55°58' E 011°00'1616.2
2014-Jul-04 21:33N 56°11' E 011°16'1817.0
2014-Jul-04 20:31N 56°27' E 011°32'1616.7
2014-Jul-04 19:32N 56°41' E 011°47'1616.0
2014-Jul-04 18:31N 56°57' E 011°44'1717.3
2014-Jul-04 17:33N 57°13' E 011°37'1817.6
2014-Jul-04 16:34N 57°31' E 011°36'1111.4
2014-Jul-04 15:33N 57°41' E 011°47'1 1.2
2014-Jul-04 14:32N 57°42' E 011°49'0 0.0
2014-Jul-04 13:32N 57°42' E 011°49'0 0.0
2014-Jul-04 12:29N 57°42' E 011°49'0 0.0
2014-Jul-04 11:31N 57°42' E 011°49'0 0.0
2014-Jul-04 10:31N 57°42' E 011°49'0 0.0
2014-Jul-04 09:33N 57°42' E 011°49'0 0.0
2014-Jul-04 08:33N 57°42' E 011°49'0 0.0
2014-Jul-04 07:29N 57°42' E 011°49'0 0.0
2014-Jul-04 06:32N 57°42' E 011°49'1 1.1
2014-Jul-04 05:33N 57°41' E 011°48'1111.5
2014-Jul-04 04:33N 57°33' E 011°31'1514.5
2014-Jul-04 03:33N 57°43' E 011°11'1716.8
2014-Jul-04 02:34N 57°54' E 010°48'1717.3
2014-Jul-04 01:33N 57°56' E 010°15'13718.4
2014-Jul-03 18:06N 58°00' E 005°57'1219.6
2014-Jul-03 17:30N 58°08' E 005°40'1918.9
2014-Jul-03 16:29N 58°21' E 005°13'1819.5
2014-Jul-03 15:32N 58°39' E 005°18'1617.0
2014-Jul-03 14:33N 58°54' E 005°32'7 7.3
2014-Jul-03 13:33N 58°59' E 005°43'1 0.9
2014-Jul-03 12:31N 58°58' E 005°44'0 0.0
2014-Jul-03 11:33N 58°58' E 005°44'0 0.0
2014-Jul-03 10:30N 58°58' E 005°44'0 0.0
2014-Jul-03 09:32N 58°58' E 005°44'0 0.0
2014-Jul-03 08:32N 58°58' E 005°44'0 0.0
2014-Jul-03 07:29N 58°58' E 005°44'0 0.0
2014-Jul-03 06:31N 58°58' E 005°44'0 0.0
2014-Jul-03 05:31N 58°58' E 005°44'0 0.1
2014-Jul-03 04:33N 58°58' E 005°44'9 9.5
2014-Jul-03 03:33N 59°06' E 005°32'1615.8
2014-Jul-03 02:33N 59°07' E 005°01'7819.3
2014-Jul-02 22:32N 60°23' E 004°35'  

Dump ship's entire track history